Cedar City, Utah Weather observations

Data are for observation ending at time listed.
 Day   Time    Ave.   Ave.  Ave.  Vector   Max.   Stn.    Total    Solar   Ave.  
  of    of     Air    Rel.  Wind   Wind    Wind   Baro.  Precip.   Rad.    Soil  
Year   Day     Temp.  Hum.  Speed  Dir.    Gust   Pres.                    Temp. 
2015   (MST)    F      %     mph   deg.    mph     mb.     in.     W/m2     F   
------------------------------------------------------------------------------
  85   22:10   48.5    38    3.9   111      7.0   830.3    0.00       0    51.3
  85   22:20   48.1    39    3.8   110      6.6   830.4    0.00       0    51.2
  85   22:30   47.8    39    4.3   110      6.6   830.5    0.00       0    51.2
  85   22:40   47.7    39    5.1    94      8.2   830.5    0.00       0    51.2
  85   22:50   47.2    40    6.1    93     11.2   830.5    0.00       0    51.2
  85   23:00   47.7    39    6.4   108     12.9   830.5    0.00       0    51.2
  85   23:10   47.4    39    4.2   104      7.2   830.5    0.00       0    51.2
  85   23:20   47.4    39    3.8   105      6.8   830.5    0.00       0    51.2
  85   23:30   47.5    38    4.6   112      9.3   830.4    0.00       0    51.2
  85   23:40   47.6    38    3.8   106      6.9   830.5    0.00       0    51.1
  85   23:50   47.4    38    4.6    94      9.2   830.5    0.00       0    51.1
  86    0:00   47.3    38    3.2   105      8.5   830.5    0.00       0    51.1
  86    0:10   46.5    40    1.0   104      4.5   830.4    0.00       0    51.1
  86    0:20   45.5    42    2.1   163      4.7   830.4    0.00       0    51.0
  86    0:30   45.4    42    3.3   134      5.7   830.3    0.00       0    51.0
  86    0:40   46.5    39    2.8   111      6.7   830.3    0.00       0    51.0
  86    0:50   46.6    38    4.5    92      7.2   830.3    0.00       0    51.0
  86    1:00   46.6    38    3.3    94      5.8   830.3    0.00       0    50.9
  86    1:10   46.3    38    4.2   106      7.8   830.4    0.00       0    50.9
  86    1:20   45.9    39    2.9   103      5.3   830.4    0.00       0    50.9
  86    1:30   45.1    41    1.6   158      4.0   830.3    0.00       0    50.9
  86    1:40   43.5    45    1.2   181      2.9   830.3    0.00       0    50.8
  86    1:50   42.1    49    1.6   175      2.5   830.3    0.00       0    50.8
  86    2:00   42.2    47    1.5   140      4.4   830.2    0.00       0    50.8
  86    2:10   43.6    43    2.6   113      5.8   830.1    0.00       0    50.7
  86    2:20   44.6    40    4.1   101      7.1   830.1    0.00       0    50.7
  86    2:30   44.7    40    2.9   115      4.9   830.1    0.00       0    50.7
  86    2:40   44.5    40    2.5   115      4.5   830.1    0.00       0    50.7
  86    2:50   44.3    40    3.1    91      5.7   830.0    0.00       0    50.6
  86    3:00   44.7    39    4.1   102      6.7   829.9    0.00       0    50.6
  86    3:10   44.6    39    2.9   102      6.9   829.8    0.00       0    50.6
  86    3:20   42.0    47    1.6   168      4.0   829.8    0.00       0    50.5
  86    3:30   41.2    48    2.0   166      5.3   829.8    0.00       0    50.5
  86    3:40   41.0    48    1.7   129      5.2   829.7    0.00       0    50.5
  86    3:50   43.3    41    3.5   104      5.6   829.6    0.00       0    50.5
  86    4:00   43.9    40    2.9   115      4.6   829.7    0.00       0    50.5
  86    4:10   42.9    42    1.4   137      2.3   829.6    0.00       0    50.4
  86    4:20   43.0    42    2.5   116      4.7   829.5    0.00       0    50.4
  86    4:30   43.8    40    3.0   101      5.7   829.5    0.00       0    50.4
  86    4:40   44.0    39    3.0   106      5.5   829.5    0.00       0    50.3
  86    4:50   44.1    39    2.6   103      4.7   829.5    0.00       0    50.3
  86    5:00   43.5    41    1.8   152      7.1   829.6    0.00       0    50.3
  86    5:10   39.6    52    1.4   210      2.9   829.7    0.00       0    50.2
  86    5:20   39.1    52    1.5   107      4.2   829.7    0.00       0    50.2
  86    5:30   42.7    42    3.1    83      7.3   829.7    0.00       0    50.2
  86    5:40   42.7    43    2.1   126      4.7   829.6    0.00       0    50.1
  86    5:50   38.6    53    2.7   190      3.7   829.6    0.00       0    50.1
  86    6:00   38.9    52    2.1   166      3.6   829.5    0.00       0    50.0
  86    6:10   40.7    48    2.0   129      5.6   829.5    0.00       0    50.0
  86    6:20   41.8    46    2.5   129      5.5   829.5    0.00       0    50.0
  86    6:30   38.9    53    2.7   196      4.2   829.5    0.00       3    49.9
  86    6:40   38.1    54    2.3   167      4.2   829.6    0.00       7    49.9
  86    6:50   40.0    51    0.8   185      2.6   829.7    0.00      11    49.9
  86    7:00   38.5    55    1.3   220      2.5   829.8    0.00      13    49.8
  86    7:10   38.7    55    1.4   215      2.5   829.8    0.00      79    49.8
  86    7:20   42.9    46    2.9    86      6.9   829.8    0.00      87    49.8
  86    7:30   45.9    42    2.7   102      4.8   829.9    0.00     168    49.8
  86    7:40   45.7    43    1.7   200      3.4   829.9    0.00     199    49.8
  86    7:50   48.1    39    1.1   181      3.3   829.9    0.00     233    49.7
  86    8:00   50.7    34    1.0   142      3.1   830.0    0.00     267    49.7
  86    8:10   52.4    32    1.3   204      2.3   830.0    0.00     303    49.7
  86    8:20   52.9    31    1.9   201      3.4   830.0    0.00     316    49.7
  86    8:30   53.4    30    1.1   207      2.9   830.0    0.00     284    49.7
  86    8:40   56.3    29    0.2   353      1.9   830.0    0.00     285    49.7
  86    8:50   54.2    35    1.5   297      3.4   830.0    0.00     322    49.7
  86    9:00   53.0    36    2.3   287      3.6   830.1    0.00     438    49.7
  86    9:10   52.9    35    2.6   292      5.2   830.1    0.00     497    49.7
  86    9:20   53.0    35    2.0   310      4.7   830.1    0.00     531    49.6
  86    9:30   53.4    35    1.9   323      4.9   830.0    0.00     560    49.6
  86    9:40   54.0    34    2.3   313      5.0   830.1    0.00     590    49.6
  86    9:50   55.3    34    2.4   314      5.6   830.1    0.00     618    49.7
  86   10:00   55.5    32    2.0   304      5.1   830.2    0.00     645    49.7
  86   10:10   56.0    31    2.7   300      5.8   830.1    0.00     670    49.7
  86   10:20   55.9    32    2.9   296      5.8   830.1    0.00     697    49.7
  86   10:30   56.3    32    3.2   309      6.5   830.2    0.00     718    49.8
  86   10:40   56.7    32    3.1   315      6.1   830.0    0.00     741    49.8
  86   10:50   57.7    32    1.9   321      5.0   830.0    0.00     760    49.8
  86   11:00   58.6    31    2.4    37      5.5   829.9    0.00     784    49.8
  86   11:10   59.5    30    2.2    64      4.4   829.9    0.00     799    49.9
  86   11:20   60.1    30    3.1   270      5.7   829.7    0.00     812    49.9
  86   11:30   60.2    29    2.9   304      6.4   829.7    0.00     825    49.9
  86   11:40   60.6    29    3.4   302      6.4   829.5    0.00     839    49.9
  86   11:50   61.8    29    2.3   283      6.6   829.5    0.00     848    50.0
  86   12:00   62.5    27    3.2   302      7.1   829.5    0.00     856    50.0
  86   12:10   62.4    27    3.0   250      6.5   829.3    0.00     861    50.1
  86   12:20   64.0    26    2.1   310      6.6   829.2    0.00     866    50.1
  86   12:30   64.6    25    3.0    33      9.1   829.1    0.00     873    50.2
  86   12:40   65.3    24    2.0    23      6.6   829.0    0.00     872    50.3
  86   12:50   65.4    24    2.7    30      6.7   828.8    0.00     877    50.3
  86   13:00   66.3    23    3.0   334      6.4   828.7    0.00     873    50.4
  86   13:10   66.9    23    3.2   303      6.1   828.6    0.00     870    50.4
  86   13:20   67.0    21    3.8    23      9.9   828.6    0.00     862    50.5
  86   13:30   67.1    21    2.6    12      7.5   828.3    0.00     853    50.6
  86   13:40   67.5    21    3.2   352      7.2   828.2    0.00     848    50.6
  86   13:50   68.4    20    2.0    84      7.3   828.1    0.00     833    50.7
  86   14:00   68.7    19    3.5   274      6.9   828.0    0.00     823    50.8
  86   14:10   69.5    18    3.3   234      6.9   827.7    0.00     804    50.9
  86   14:20   69.8    16    4.2   297      9.1   827.5    0.00     798    51.0
  86   14:30   69.3    16    4.5   310      8.0   827.5    0.00     779    51.1
  86   14:40   69.8    16    2.7   306      8.0   827.4    0.00     755    51.2
  86   14:50   70.4    15    5.6   308     10.5   827.4    0.00     737    51.3
  86   15:00   69.9    15    3.6   355      9.1   827.2    0.00     715    51.4
  86   15:10   70.6    14    3.5   355      9.6   827.2    0.00     655    51.5
  86   15:20   70.5    15    3.3   323      7.3   827.0    0.00     621    51.6
  86   15:30   70.3    14    3.9    34      7.0   827.0    0.00     423    51.7
  86   15:40   70.5    15    2.7    12      7.4   826.7    0.00     375    51.8
  86   15:50   70.2    16    4.3   331      9.2   826.6    0.00     115    51.8
  86   16:00   70.5    15    2.9   286      9.1   826.5    0.00     160    51.9
  86   16:10   70.8    16    3.1   308      6.7   826.5    0.00     520    52.0
  86   16:20   70.3    16    3.0   347      9.1   826.5    0.00     489    52.1
  86   16:30   70.4    16    3.2   319      8.4   826.4    0.00     454    52.2
  86   16:40   70.4    16    3.5   310      8.8   826.4    0.00     426    52.3
  86   16:50   70.2    16    4.4    12      8.8   826.4    0.00     389    52.4
  86   17:00   69.9    16    5.3     8     11.1   826.4    0.00     356    52.5
  86   17:10   70.1    16    2.4   312      8.7   826.4    0.00     296    52.6
  86   17:20   70.4    16    3.0    17      8.0   826.3    0.00     286    52.6
  86   17:30   70.3    16    2.6   328      5.3   826.3    0.00     252    52.7
  86   17:40   70.1    15    3.1    20      6.6   826.3    0.00     207    52.8
  86   17:50   69.5    16    3.6     6      8.0   826.3    0.00     180    52.8
  86   18:00   69.7    15    3.2   342      6.4   826.3    0.00      91    52.9
  86   18:10   70.2    16    2.2   332      5.6   826.3    0.00     119    52.9
  86   18:20   69.9    17    3.9   289      7.4   826.4    0.00      83    53.0
  86   18:30   69.1    18    2.9   248      6.2   826.4    0.00      47    53.1
  86   18:40   68.5    18    3.3   228      6.4   826.3    0.00      23    53.1
  86   18:50   67.1    19    3.0   216      6.2   826.3    0.00       9    53.1
  86   19:00   65.5    20    3.4   210      6.1   826.3    0.00       3    53.2
  86   19:10   64.5    21    2.4   193      5.3   826.2    0.00       0    53.3
  86   19:20   63.2    22    0.8   182      2.6   826.3    0.00       0    53.3
  86   19:30   62.2    24    1.9   114      3.6   826.3    0.00       0    53.4
  86   19:40   61.8    24    3.3   115      7.7   826.4    0.00       0    53.4
  86   19:50   60.8    24    4.3   109      8.3   826.5    0.00       0    53.5
  86   20:00   60.3    25    4.3   110      7.9   826.7    0.00       0    53.5
  86   20:10   59.5    26    5.1    98      8.3   826.7    0.00       0    53.5
  86   20:20   58.7    26    6.0    99     11.2   826.8    0.00       0    53.5
  86   20:30   58.1    27    5.8    99      9.5   826.8    0.00       0    53.6
  86   20:40   57.5    27    6.4   102     11.1   826.8    0.00       0    53.6
  86   20:50   56.8    28    7.6   100     11.4   826.8    0.00       0    53.6
  86   21:00   56.5    28    7.2   104     12.1   826.9    0.00       0    53.7
  86   21:10   56.2    28    5.5   102     10.4   826.9    0.00       0    53.7
  86   21:20   55.9    28    6.9    98     10.4   826.9    0.00       0    53.7
  86   21:30   56.0    28    7.1   103     12.3   826.9    0.00       0    53.7
  86   21:40   56.0    28    7.7   100     12.6   827.0    0.00       0    53.7
  86   21:50   55.5    29    7.4    96     14.0   827.1    0.00       0    53.7
  86   22:00   55.2    29    7.5    96     12.6   827.2    0.00       0    53.7

Return to Cedar City, Utah graphs page.


Western Regional Climate Center,wrcc@dri.edu